createdAt,value
2023-05-05T00:00:46.881Z,93.70
2023-05-05T00:01:46.927Z,94.06
2023-05-05T00:02:47.308Z,94.06
2023-05-05T00:04:02.520Z,93.70
2023-05-05T00:04:46.837Z,93.95
2023-05-05T00:05:47.723Z,94.56
2023-05-05T00:06:46.846Z,94.67
2023-05-05T00:07:51.320Z,94.67
2023-05-05T00:08:46.803Z,94.56
2023-05-05T00:09:46.791Z,94.67
2023-05-05T00:10:46.776Z,94.87
2023-05-05T00:11:46.795Z,94.87
2023-05-05T00:12:47.205Z,94.97
2023-05-05T00:13:46.787Z,95.28
2023-05-05T00:14:46.752Z,95.18
2023-05-05T00:15:47.500Z,94.87
2023-05-05T00:16:46.734Z,94.67
2023-05-05T00:17:46.753Z,94.56
2023-05-05T00:18:46.978Z,94.67
2023-05-05T00:19:46.712Z,94.67
2023-05-05T00:20:47.693Z,95.07
2023-05-05T00:21:46.676Z,95.28
2023-05-05T00:22:47.672Z,95.59
2023-05-05T00:23:46.735Z,95.59
2023-05-05T00:24:46.684Z,95.69
2023-05-05T00:25:46.638Z,95.79
2023-05-05T00:26:46.628Z,95.69
2023-05-05T00:27:46.909Z,95.28
2023-05-05T00:28:46.649Z,94.77
2023-05-05T00:29:46.625Z,94.56
2023-05-05T00:30:46.673Z,94.26
2023-05-05T00:31:47.392Z,94.26
2023-05-05T00:32:46.653Z,94.56
2023-05-05T00:33:46.561Z,94.77
2023-05-05T00:34:46.556Z,94.46
2023-05-05T00:35:46.527Z,94.36
2023-05-05T00:36:46.491Z,93.95
2023-05-05T00:37:46.513Z,94.46
2023-05-05T00:38:46.733Z,95.07
2023-05-05T00:39:46.512Z,95.79
2023-05-05T00:40:46.524Z,95.94
2023-05-05T00:41:46.532Z,95.53
2023-05-05T00:42:46.652Z,95.22
2023-05-05T00:43:46.737Z,95.53
2023-05-05T00:44:47.303Z,95.53
2023-05-05T00:45:46.497Z,95.53
2023-05-05T00:46:46.506Z,95.73
2023-05-05T00:47:46.426Z,95.43
2023-05-05T00:48:46.396Z,95.43
2023-05-05T00:49:46.422Z,95.84
2023-05-05T00:50:46.412Z,96.14
2023-05-05T00:51:46.412Z,96.34
2023-05-05T00:52:46.396Z,96.25
2023-05-05T00:53:46.349Z,96.14
2023-05-05T00:54:46.324Z,95.94
2023-05-05T00:55:46.374Z,95.73
2023-05-05T00:56:46.354Z,95.94
2023-05-05T00:57:46.614Z,96.04
2023-05-05T00:58:46.315Z,96.14
2023-05-05T00:59:46.548Z,96.04
2023-05-05T01:00:46.284Z,95.84
2023-05-05T01:01:46.416Z,96.25
2023-05-05T01:02:46.364Z,96.34
2023-05-05T01:03:46.285Z,96.04
2023-05-05T01:04:46.240Z,96.04
2023-05-05T01:05:46.199Z,96.45
2023-05-05T01:06:46.270Z,96.34
2023-05-05T01:07:46.450Z,96.04
2023-05-05T01:08:46.208Z,95.73
2023-05-05T01:09:46.431Z,96.04
2023-05-05T01:10:46.936Z,96.04
2023-05-05T01:11:46.447Z,95.94
2023-05-05T01:12:46.178Z,95.84
2023-05-05T01:13:46.125Z,95.48
2023-05-05T01:14:46.371Z,95.59
2023-05-05T01:15:53.761Z,95.59
2023-05-05T01:16:46.123Z,96.00
2023-05-05T01:17:46.126Z,96.41
2023-05-05T01:18:46.074Z,96.51
2023-05-05T01:19:46.104Z,96.41
2023-05-05T01:20:46.119Z,96.51
2023-05-05T01:21:46.066Z,96.10
2023-05-05T01:22:46.930Z,96.30
2023-05-05T01:23:46.289Z,96.41
2023-05-05T01:24:46.264Z,96.61
2023-05-05T01:25:46.003Z,96.61
2023-05-05T01:26:46.033Z,96.51
2023-05-05T01:27:45.999Z,96.30
2023-05-05T01:28:45.998Z,96.41
2023-05-05T01:29:46.720Z,96.41
2023-05-05T01:30:46.001Z,96.30
2023-05-05T01:31:46.205Z,96.00
2023-05-05T01:32:46.267Z,95.79
2023-05-05T01:33:49.554Z,95.59
2023-05-05T01:34:45.942Z,95.28
2023-05-05T01:35:45.910Z,94.87
2023-05-05T01:36:45.903Z,94.97
2023-05-05T01:37:47.778Z,94.97
2023-05-05T01:38:45.890Z,94.67
2023-05-05T01:39:45.877Z,94.67
2023-05-05T01:40:46.095Z,94.56
2023-05-05T01:41:45.845Z,94.87
2023-05-05T01:42:45.862Z,95.07
2023-05-05T01:43:45.847Z,95.28
2023-05-05T01:44:45.834Z,95.69
2023-05-05T01:45:45.868Z,96.00
2023-05-05T01:46:46.041Z,95.89
2023-05-05T01:47:45.797Z,95.79
2023-05-05T01:48:45.784Z,95.89
2023-05-05T01:49:47.133Z,96.20
2023-05-05T01:50:45.743Z,96.00
2023-05-05T01:52:49.938Z,95.89
2023-05-05T01:52:55.679Z,96.41
2023-05-05T01:53:55.358Z,96.61
2023-05-05T01:54:55.415Z,96.61
2023-05-05T01:55:55.405Z,96.61
2023-05-05T01:56:55.441Z,96.51
2023-05-05T01:57:55.390Z,96.30
2023-05-05T01:58:56.140Z,96.20
2023-05-05T01:59:55.350Z,96.61
2023-05-05T02:00:55.683Z,97.12
2023-05-05T02:01:55.513Z,97.02
2023-05-05T02:02:55.367Z,97.12
2023-05-05T02:03:55.306Z,97.02
2023-05-05T02:04:55.305Z,97.02
2023-05-05T02:05:57.075Z,97.02
2023-05-05T02:06:55.266Z,97.02
2023-05-05T02:07:55.483Z,97.22
2023-05-05T02:08:55.254Z,97.22
2023-05-05T02:09:55.234Z,97.42
2023-05-05T02:10:55.232Z,97.53
2023-05-05T02:11:55.198Z,97.53
2023-05-05T02:12:55.241Z,97.33
2023-05-05T02:13:55.176Z,97.33
2023-05-05T02:14:55.254Z,97.22
2023-05-05T02:15:55.417Z,96.92
2023-05-05T02:16:55.138Z,96.51
2023-05-05T02:17:55.190Z,96.51
2023-05-05T02:18:55.173Z,96.51
2023-05-05T02:19:55.913Z,96.81
2023-05-05T02:20:55.109Z,96.61
2023-05-05T02:21:55.175Z,96.92
2023-05-05T02:22:55.100Z,96.92
2023-05-05T02:23:55.727Z,97.02
2023-05-05T02:24:55.083Z,96.92
2023-05-05T02:25:55.100Z,97.33
2023-05-05T02:26:55.104Z,97.38
2023-05-05T02:27:55.050Z,97.17
2023-05-05T02:28:55.029Z,96.87
2023-05-05T02:29:55.549Z,96.87
2023-05-05T02:30:55.059Z,96.67
2023-05-05T02:31:55.421Z,96.77
2023-05-05T02:32:55.101Z,96.97
2023-05-05T02:33:55.364Z,96.87
2023-05-05T02:34:54.987Z,96.77
2023-05-05T02:35:54.923Z,96.67
2023-05-05T02:36:54.993Z,96.67
2023-05-05T02:37:54.941Z,96.87
2023-05-05T02:38:54.935Z,97.17
2023-05-05T02:39:55.010Z,97.17
2023-05-05T02:40:55.195Z,97.38
2023-05-05T02:41:54.860Z,97.38
2023-05-05T02:42:55.269Z,97.28
2023-05-05T02:43:54.869Z,96.77
2023-05-05T02:44:54.869Z,96.77
2023-05-05T02:46:02.853Z,96.67
2023-05-05T02:46:55.100Z,96.56
2023-05-05T02:47:54.898Z,96.46
2023-05-05T02:48:55.562Z,96.56
2023-05-05T02:49:54.833Z,96.31
2023-05-05T02:50:54.812Z,96.01
2023-05-05T02:51:54.793Z,95.90
2023-05-05T02:52:54.782Z,96.21
2023-05-05T02:53:54.859Z,96.31
2023-05-05T02:54:56.636Z,96.62
2023-05-05T02:55:54.738Z,96.62
2023-05-05T02:56:54.770Z,96.11
2023-05-05T02:57:54.716Z,94.89
2023-05-05T02:58:54.705Z,93.45
2023-05-05T02:59:54.660Z,92.49
2023-05-05T03:00:54.704Z,91.88
2023-05-05T03:01:54.766Z,91.12
2023-05-05T03:02:54.811Z,90.71
2023-05-05T03:03:54.742Z,89.86
2023-05-05T03:04:54.651Z,89.25
2023-05-05T03:05:54.658Z,88.59
2023-05-05T03:06:54.687Z,87.98
2023-05-05T03:07:54.580Z,87.43
2023-05-05T03:08:54.645Z,86.92
2023-05-05T03:09:54.651Z,86.37
2023-05-05T03:10:54.591Z,86.16
2023-05-05T03:11:54.563Z,85.61
2023-05-05T03:12:54.584Z,85.00
2023-05-05T03:13:55.301Z,84.56
2023-05-05T03:14:54.531Z,84.25
2023-05-05T03:15:54.572Z,83.60
2023-05-05T03:16:54.799Z,83.60
2023-05-05T03:17:54.498Z,83.20
2023-05-05T03:18:54.505Z,83.20
2023-05-05T03:19:54.535Z,82.85
2023-05-05T03:20:54.748Z,82.65
2023-05-05T03:21:54.430Z,82.54
2023-05-05T03:22:54.712Z,82.34
2023-05-05T03:23:54.464Z,82.45
2023-05-05T03:24:54.436Z,81.90
2023-05-05T03:25:54.419Z,82.10
2023-05-05T03:26:54.394Z,82.00
2023-05-05T03:27:54.344Z,82.00
2023-05-05T03:28:54.760Z,82.20
2023-05-05T03:29:54.298Z,82.31
2023-05-05T03:30:54.346Z,81.79
2023-05-05T03:31:54.372Z,81.90
2023-05-05T03:32:54.333Z,81.79
2023-05-05T03:33:54.494Z,81.70
2023-05-05T03:34:54.265Z,81.66
2023-05-05T03:35:54.262Z,81.76
2023-05-05T03:36:54.490Z,81.56
2023-05-05T03:37:54.214Z,81.86
2023-05-05T03:38:54.464Z,81.35
2023-05-05T03:39:54.238Z,81.35
2023-05-05T03:40:54.475Z,81.35
2023-05-05T03:41:54.180Z,81.35
2023-05-05T03:42:54.408Z,81.25
2023-05-05T03:43:54.150Z,81.45
2023-05-05T03:44:54.206Z,81.35
2023-05-05T03:46:01.693Z,81.25
2023-05-05T03:46:54.128Z,81.45
2023-05-05T03:47:54.410Z,81.25
2023-05-05T03:48:54.139Z,81.45
2023-05-05T03:49:54.077Z,81.66
2023-05-05T03:50:54.092Z,81.66
2023-05-05T03:51:54.459Z,81.76
2023-05-05T03:52:54.072Z,81.66
2023-05-05T03:53:57.803Z,81.86
2023-05-05T03:54:54.025Z,82.06
2023-05-05T03:55:55.731Z,82.06
2023-05-05T03:56:54.051Z,82.06
2023-05-05T03:57:54.295Z,81.96
2023-05-05T03:58:54.027Z,82.06
2023-05-05T03:59:54.784Z,82.26
2023-05-05T04:00:54.016Z,82.26
2023-05-05T04:01:57.655Z,82.26
2023-05-05T04:02:54.043Z,82.26
2023-05-05T04:03:54.255Z,82.37
2023-05-05T04:04:53.945Z,82.47
2023-05-05T04:05:53.964Z,82.57
2023-05-05T04:06:53.939Z,82.78
2023-05-05T04:07:54.164Z,82.67
2023-05-05T04:08:53.964Z,82.78
2023-05-05T04:09:53.898Z,82.78
2023-05-05T04:10:53.907Z,82.87
2023-05-05T04:11:53.856Z,83.08
2023-05-05T04:12:54.680Z,82.87
2023-05-05T04:13:53.851Z,83.01
2023-05-05T04:14:55.577Z,83.01
2023-05-05T04:15:54.090Z,83.12
2023-05-05T04:16:53.886Z,83.32
2023-05-05T04:17:53.907Z,83.53
2023-05-05T04:18:53.810Z,83.62
2023-05-05T04:19:54.370Z,83.73
2023-05-05T04:20:53.811Z,83.83
2023-05-05T04:21:53.757Z,84.68
2023-05-05T04:22:54.295Z,84.99
2023-05-05T04:23:53.802Z,84.88
2023-05-05T04:24:53.710Z,85.80
2023-05-05T04:25:53.720Z,86.55
2023-05-05T04:26:53.703Z,86.86
2023-05-05T04:27:53.921Z,87.47
2023-05-05T04:28:55.673Z,87.30
2023-05-05T04:29:53.684Z,87.71
2023-05-05T04:30:53.751Z,87.61
2023-05-05T04:31:53.712Z,87.65
2023-05-05T04:32:53.777Z,87.35
2023-05-05T04:33:53.869Z,87.14
2023-05-05T04:34:53.643Z,87.35
2023-05-05T04:35:53.619Z,87.65
2023-05-05T04:36:53.635Z,88.20
2023-05-05T04:37:53.627Z,88.61
2023-05-05T04:38:53.598Z,88.51
2023-05-05T04:39:53.577Z,88.61
2023-05-05T04:40:53.965Z,88.65
2023-05-05T04:41:53.552Z,88.85
2023-05-05T04:42:57.580Z,88.85
2023-05-05T04:43:53.539Z,88.65
2023-05-05T04:44:53.667Z,88.65
2023-05-05T04:45:53.550Z,88.75
2023-05-05T04:46:53.612Z,89.16
2023-05-05T04:47:53.726Z,89.47
2023-05-05T04:48:53.480Z,89.77
2023-05-05T04:49:53.496Z,89.87
2023-05-05T04:50:53.609Z,89.57
2023-05-05T04:51:53.435Z,89.87
2023-05-05T04:52:53.457Z,90.79
2023-05-05T04:53:53.425Z,90.95
2023-05-05T04:54:53.592Z,90.85
2023-05-05T04:55:55.317Z,90.75
2023-05-05T04:56:53.966Z,90.50
2023-05-05T04:57:53.509Z,90.81
2023-05-05T04:58:53.451Z,90.60
2023-05-05T04:59:53.378Z,90.66
2023-05-05T05:00:53.577Z,90.56
2023-05-05T05:01:53.401Z,90.25
2023-05-05T05:02:53.499Z,90.05
2023-05-05T05:03:53.574Z,89.91
2023-05-05T05:04:53.357Z,89.70
2023-05-05T05:05:53.335Z,89.61
2023-05-05T05:06:53.318Z,89.30
2023-05-05T05:07:53.345Z,89.36
2023-05-05T05:08:53.267Z,89.26
2023-05-05T05:09:53.474Z,89.05
2023-05-05T05:10:53.249Z,89.26
2023-05-05T05:11:53.318Z,89.15
2023-05-05T05:12:53.231Z,88.95
2023-05-05T05:13:53.243Z,88.95
2023-05-05T05:14:53.368Z,88.75
2023-05-05T05:15:53.224Z,88.65
2023-05-05T05:16:53.245Z,88.71
2023-05-05T05:17:53.205Z,88.81
2023-05-05T05:18:53.137Z,88.91
2023-05-05T05:19:53.148Z,88.71
2023-05-05T05:20:53.141Z,88.81
2023-05-05T05:21:53.337Z,88.81
2023-05-05T05:22:53.130Z,88.71
2023-05-05T05:23:53.386Z,88.71
2023-05-05T05:24:53.074Z,88.71
2023-05-05T05:25:53.099Z,88.67
2023-05-05T05:26:53.054Z,88.67
2023-05-05T05:28:06.147Z,88.46
2023-05-05T05:28:53.060Z,88.46
2023-05-05T05:29:53.030Z,88.46
2023-05-05T05:30:53.065Z,88.36
2023-05-05T05:31:53.086Z,88.21
2023-05-05T05:32:53.233Z,88.21
2023-05-05T05:33:53.161Z,88.12
2023-05-05T05:34:53.005Z,88.21
2023-05-05T05:35:53.378Z,87.81
2023-05-05T05:36:52.960Z,87.81
2023-05-05T05:37:53.014Z,87.92
2023-05-05T05:38:52.935Z,88.21
2023-05-05T05:39:53.153Z,88.01
2023-05-05T05:40:52.901Z,87.87
2023-05-05T05:41:52.912Z,87.87
2023-05-05T05:42:52.895Z,87.57
2023-05-05T05:43:52.925Z,87.57
2023-05-05T05:44:52.857Z,87.37
2023-05-05T05:45:52.959Z,87.57
2023-05-05T05:46:52.835Z,87.43
2023-05-05T05:47:52.891Z,87.22
2023-05-05T05:48:53.278Z,87.22
2023-05-05T05:49:52.802Z,86.91
2023-05-05T05:50:52.807Z,86.82
2023-05-05T05:51:52.847Z,86.71
2023-05-05T05:52:52.845Z,86.68
2023-05-05T05:53:52.785Z,86.47
2023-05-05T05:54:52.757Z,86.47
2023-05-05T05:55:52.816Z,86.47
2023-05-05T05:56:52.776Z,86.27
2023-05-05T05:57:52.763Z,86.37
2023-05-05T05:58:52.907Z,86.37
2023-05-05T05:59:52.726Z,86.13
2023-05-05T06:00:52.689Z,85.82
2023-05-05T06:01:52.738Z,85.82
2023-05-05T06:02:52.786Z,85.93
2023-05-05T06:03:52.903Z,85.62
2023-05-05T06:04:52.669Z,85.31
2023-05-05T06:05:52.704Z,85.52
2023-05-05T06:06:52.736Z,85.72
2023-05-05T06:07:52.629Z,85.52
2023-05-05T06:08:52.616Z,85.62
2023-05-05T06:09:52.662Z,85.62
2023-05-05T06:10:52.635Z,85.58
2023-05-05T06:11:52.573Z,85.58
2023-05-05T06:12:52.720Z,85.38
2023-05-05T06:13:52.571Z,85.07
2023-05-05T06:14:52.534Z,85.17
2023-05-05T06:15:52.565Z,84.97
2023-05-05T06:16:53.363Z,84.83
2023-05-05T06:17:52.542Z,84.63
2023-05-05T06:18:52.497Z,84.12
2023-05-05T06:19:54.437Z,84.12
2023-05-05T06:20:52.527Z,84.12
2023-05-05T06:21:52.493Z,83.58
2023-05-05T06:22:52.455Z,83.68
2023-05-05T06:23:52.453Z,83.47
2023-05-05T06:24:52.458Z,83.47
2023-05-05T06:25:52.466Z,83.23
2023-05-05T06:26:52.399Z,82.73
2023-05-05T06:27:52.439Z,82.42
2023-05-05T06:28:52.386Z,82.53
2023-05-05T06:29:52.409Z,81.48
2023-05-05T06:30:52.381Z,81.68
2023-05-05T06:31:52.500Z,81.88
2023-05-05T06:32:52.338Z,80.77
2023-05-05T06:33:52.386Z,80.77
2023-05-05T06:34:52.399Z,80.32
2023-05-05T06:35:52.319Z,80.43
2023-05-05T06:36:52.428Z,80.12
2023-05-05T06:37:52.296Z,79.72
2023-05-05T06:38:52.321Z,79.28
2023-05-05T06:39:52.301Z,78.47
2023-05-05T06:40:52.277Z,78.17
2023-05-05T06:41:52.255Z,78.94
2023-05-05T06:42:52.236Z,78.63
2023-05-05T06:43:52.256Z,77.79
2023-05-05T06:44:52.262Z,76.68
2023-05-05T06:45:52.305Z,77.19
2023-05-05T06:46:52.234Z,76.95
2023-05-05T06:47:52.380Z,75.94
2023-05-05T06:48:52.217Z,75.84
2023-05-05T06:49:52.241Z,74.83
2023-05-05T06:50:52.169Z,74.79
2023-05-05T06:51:52.142Z,74.49
2023-05-05T06:52:52.214Z,75.10
2023-05-05T06:53:52.200Z,73.85
2023-05-05T06:54:52.130Z,73.35
2023-05-05T06:55:52.133Z,73.25
2023-05-05T06:56:52.078Z,73.92
2023-05-05T06:57:52.159Z,73.41
2023-05-05T06:58:52.127Z,72.91
2023-05-05T06:59:52.080Z,72.11
2023-05-05T07:00:52.093Z,71.97
2023-05-05T07:01:52.083Z,71.36
2023-05-05T07:02:52.909Z,71.77
2023-05-05T07:03:52.069Z,71.67
2023-05-05T07:04:52.045Z,71.47
2023-05-05T07:05:52.094Z,71.06
2023-05-05T07:06:52.889Z,71.16
2023-05-05T07:07:52.055Z,71.33
2023-05-05T07:08:52.003Z,70.32
2023-05-05T07:09:51.990Z,70.63
2023-05-05T07:10:51.949Z,70.73
2023-05-05T07:11:51.981Z,70.12
2023-05-05T07:12:51.981Z,70.50
2023-05-05T07:13:51.947Z,69.69
2023-05-05T07:14:51.988Z,70.12
2023-05-05T07:15:51.970Z,70.50
2023-05-05T07:16:51.935Z,70.39
2023-05-05T07:17:52.023Z,69.79
2023-05-05T07:18:51.880Z,69.49
2023-05-05T07:19:51.869Z,69.59
2023-05-05T07:20:51.880Z,69.49
2023-05-05T07:21:51.899Z,69.76
2023-05-05T07:22:51.921Z,70.36
2023-05-05T07:23:52.031Z,68.65
2023-05-05T07:24:51.822Z,68.55
2023-05-05T07:25:51.813Z,68.75
2023-05-05T07:26:51.817Z,67.94
2023-05-05T07:27:51.809Z,67.85
2023-05-05T07:28:51.774Z,68.75
2023-05-05T07:29:51.734Z,68.55
2023-05-05T07:30:51.775Z,68.85
2023-05-05T07:31:51.861Z,68.82
2023-05-05T07:32:51.889Z,67.71
2023-05-05T07:33:51.708Z,67.91
2023-05-05T07:34:51.680Z,68.32
2023-05-05T07:35:51.716Z,67.78
2023-05-05T07:36:51.781Z,67.38
2023-05-05T07:37:51.669Z,67.68
2023-05-05T07:38:51.708Z,68.05
2023-05-05T07:39:51.674Z,67.55
2023-05-05T07:40:52.273Z,66.61
2023-05-05T07:41:51.715Z,66.08
2023-05-05T07:42:51.609Z,66.28
2023-05-05T07:43:51.598Z,66.18
2023-05-05T07:44:51.648Z,66.15
2023-05-05T07:45:52.434Z,65.31
2023-05-05T07:46:51.571Z,65.12
2023-05-05T07:47:51.637Z,63.81
2023-05-05T07:48:51.597Z,64.62
2023-05-05T07:49:51.570Z,64.42
2023-05-05T07:50:51.529Z,63.98
2023-05-05T07:51:51.525Z,63.98
2023-05-05T07:52:56.349Z,64.12
2023-05-05T07:53:51.536Z,64.39
2023-05-05T07:54:51.544Z,63.95
2023-05-05T07:55:51.493Z,63.06
2023-05-05T07:56:51.454Z,63.56
2023-05-05T07:57:51.429Z,63.22
2023-05-05T07:58:51.465Z,62.92
2023-05-05T07:59:51.476Z,62.29
2023-05-05T08:00:51.411Z,62.09
2023-05-05T08:01:53.130Z,62.29
2023-05-05T08:02:51.517Z,62.52
2023-05-05T08:03:51.463Z,63.06
2023-05-05T08:04:51.389Z,63.15
2023-05-05T08:05:51.835Z,63.65
2023-05-05T08:06:51.339Z,62.75
2023-05-05T08:07:51.374Z,63.35
2023-05-05T08:08:51.329Z,65.19
2023-05-05T08:09:51.319Z,64.78
2023-05-05T08:10:51.316Z,64.59
2023-05-05T08:11:51.303Z,64.28
2023-05-05T08:12:51.362Z,63.98
2023-05-05T08:13:51.291Z,65.12
2023-05-05T08:14:51.281Z,65.22
2023-05-05T08:15:51.288Z,64.62
2023-05-05T08:16:51.225Z,64.39
2023-05-05T08:17:51.515Z,64.28
2023-05-05T08:18:51.230Z,64.48
2023-05-05T08:19:51.230Z,64.98
2023-05-05T08:20:51.285Z,64.48
2023-05-05T08:21:51.194Z,63.65
2023-05-05T08:22:51.230Z,63.02
2023-05-05T08:23:51.182Z,63.12
2023-05-05T08:24:51.161Z,64.32
2023-05-05T08:25:51.231Z,62.79
2023-05-05T08:26:51.164Z,63.72
2023-05-05T08:27:51.207Z,62.59
2023-05-05T08:28:51.134Z,62.99
2023-05-05T08:29:51.107Z,62.70
2023-05-05T08:30:51.095Z,63.46
2023-05-05T08:31:51.173Z,62.56
2023-05-05T08:32:51.119Z,63.26
2023-05-05T08:33:51.069Z,62.66
2023-05-05T08:34:51.059Z,61.87
2023-05-05T08:35:51.087Z,62.16
2023-05-05T08:36:51.055Z,61.96
2023-05-05T08:37:51.343Z,61.66
2023-05-05T08:38:51.031Z,62.37
2023-05-05T08:39:51.015Z,62.86
2023-05-05T08:40:51.058Z,63.66
2023-05-05T08:41:51.004Z,63.36
2023-05-05T08:42:50.979Z,62.46
2023-05-05T08:43:50.959Z,62.37
2023-05-05T08:44:50.989Z,62.96
2023-05-05T08:45:50.959Z,62.66
2023-05-05T08:46:51.029Z,61.46
2023-05-05T08:47:50.977Z,60.96
2023-05-05T08:48:50.938Z,61.57
2023-05-05T08:49:50.901Z,62.96
2023-05-05T08:50:51.116Z,62.06
2023-05-05T08:51:50.865Z,61.26
2023-05-05T08:52:51.344Z,62.76
2023-05-05T08:53:50.941Z,61.16
2023-05-05T08:54:50.841Z,61.57
2023-05-05T08:55:50.852Z,60.66
2023-05-05T08:56:50.834Z,62.39
2023-05-05T08:57:50.804Z,62.79
2023-05-05T08:58:50.868Z,62.39
2023-05-05T08:59:50.848Z,62.59
2023-05-05T09:00:50.900Z,62.19
2023-05-05T09:01:50.871Z,62.39
2023-05-05T09:02:50.942Z,61.69
2023-05-05T09:03:50.757Z,62.06
2023-05-05T09:04:50.929Z,62.37
2023-05-05T09:05:50.790Z,62.86
2023-05-05T09:06:51.400Z,61.54
2023-05-05T09:07:50.952Z,61.43
2023-05-05T09:08:50.845Z,61.43
2023-05-05T09:09:50.712Z,60.83
2023-05-05T09:10:50.733Z,60.71
2023-05-05T09:11:50.737Z,61.21
2023-05-05T09:12:51.670Z,60.91
2023-05-05T09:13:50.661Z,60.71
2023-05-05T09:14:50.645Z,58.11
2023-05-05T09:15:50.631Z,58.51
2023-05-05T09:16:50.696Z,59.74
2023-05-05T09:17:50.695Z,58.94
2023-05-05T09:18:50.630Z,60.86
2023-05-05T09:19:50.652Z,60.46
2023-05-05T09:20:50.681Z,60.66
2023-05-05T09:21:50.658Z,60.74
2023-05-05T09:22:50.644Z,61.13
2023-05-05T09:23:50.546Z,60.14
2023-05-05T09:24:50.595Z,60.00
2023-05-05T09:25:50.552Z,60.80
2023-05-05T09:26:50.550Z,59.88
2023-05-05T09:27:50.827Z,58.38
2023-05-05T09:28:50.509Z,58.18
2023-05-05T09:29:50.571Z,58.85
2023-05-05T09:30:52.703Z,58.55
2023-05-05T09:31:50.695Z,57.26
2023-05-05T09:32:50.531Z,56.66
2023-05-05T09:33:50.449Z,57.35
2023-05-05T09:34:51.240Z,57.46
2023-05-05T09:35:50.443Z,56.85
2023-05-05T09:36:51.447Z,57.35
2023-05-05T09:37:50.505Z,57.68
2023-05-05T09:38:50.470Z,58.08
2023-05-05T09:39:50.475Z,57.68
2023-05-05T09:40:50.366Z,58.38
2023-05-05T09:41:50.333Z,56.98
2023-05-05T09:42:50.446Z,56.41
2023-05-05T09:43:50.374Z,57.54
2023-05-05T09:44:50.397Z,59.44
2023-05-05T09:45:50.348Z,59.34
2023-05-05T09:46:50.782Z,59.23
2023-05-05T09:47:50.588Z,58.34
2023-05-05T09:48:50.559Z,57.91
2023-05-05T09:49:50.348Z,59.41
2023-05-05T09:50:50.288Z,59.11
2023-05-05T09:51:50.300Z,58.38
2023-05-05T09:52:50.282Z,58.98
2023-05-05T09:53:50.236Z,57.88
2023-05-05T09:54:50.236Z,57.88
2023-05-05T09:55:50.359Z,58.18
2023-05-05T09:56:50.212Z,56.48
2023-05-05T09:57:50.357Z,56.79
2023-05-05T09:58:50.237Z,56.38
2023-05-05T09:59:50.196Z,56.09
2023-05-05T10:00:50.159Z,56.48
2023-05-05T10:01:50.221Z,56.38
2023-05-05T10:02:50.158Z,56.29
2023-05-05T10:03:50.177Z,57.09
2023-05-05T10:04:50.182Z,56.29
2023-05-05T10:05:50.213Z,56.68
2023-05-05T10:06:50.245Z,58.25
2023-05-05T10:07:50.124Z,57.86
2023-05-05T10:08:50.107Z,56.63
2023-05-05T10:09:50.239Z,55.91
2023-05-05T10:10:50.142Z,55.28
2023-05-05T10:11:50.136Z,54.79
2023-05-05T10:12:50.130Z,53.96
2023-05-05T10:13:50.064Z,53.96
2023-05-05T10:14:50.085Z,55.05
2023-05-05T10:15:50.122Z,53.86
2023-05-05T10:16:50.040Z,54.19
2023-05-05T10:18:06.062Z,54.49
2023-05-05T10:18:50.150Z,54.71
2023-05-05T10:19:49.996Z,55.01
2023-05-05T10:20:50.054Z,55.43
2023-05-05T10:21:50.097Z,55.83
2023-05-05T10:22:50.000Z,55.56
2023-05-05T10:23:50.128Z,56.36
2023-05-05T10:24:49.956Z,56.88
2023-05-05T10:25:49.924Z,55.99
2023-05-05T10:26:50.035Z,57.01
2023-05-05T10:27:49.880Z,56.81
2023-05-05T10:28:49.885Z,58.41
2023-05-05T10:29:49.913Z,57.93
2023-05-05T10:30:49.866Z,58.24
2023-05-05T10:31:49.938Z,57.34
2023-05-05T10:32:54.410Z,57.74
2023-05-05T10:33:50.070Z,58.67
2023-05-05T10:34:49.801Z,58.67
2023-05-05T10:35:49.792Z,58.76
2023-05-05T10:36:49.815Z,58.37
2023-05-05T10:37:49.818Z,58.09
2023-05-05T10:38:49.771Z,57.89
2023-05-05T10:39:49.718Z,59.12
2023-05-05T10:40:49.746Z,59.32
2023-05-05T10:41:49.879Z,58.09
2023-05-05T10:42:49.848Z,57.97
2023-05-05T10:43:49.704Z,57.87
2023-05-05T10:44:49.718Z,57.93
2023-05-05T10:45:49.811Z,59.34
2023-05-05T10:46:49.739Z,57.91
2023-05-05T10:47:49.776Z,55.29
2023-05-05T10:48:49.696Z,54.46
2023-05-05T10:49:50.381Z,54.24
2023-05-05T10:50:49.643Z,53.41
2023-05-05T10:51:49.669Z,53.61
2023-05-05T10:52:49.785Z,53.29
2023-05-05T10:53:49.665Z,53.99
2023-05-05T10:54:49.744Z,53.46
2023-05-05T10:55:49.592Z,53.96
2023-05-05T10:56:49.645Z,51.75
2023-05-05T10:57:49.662Z,51.67
2023-05-05T10:58:59.848Z,52.97
2023-05-05T10:59:49.597Z,53.06
2023-05-05T11:00:49.610Z,52.84
2023-05-05T11:01:49.651Z,52.54
2023-05-05T11:02:49.597Z,51.52
2023-05-05T11:03:49.644Z,51.92
2023-05-05T11:04:49.558Z,51.54
2023-05-05T11:05:49.566Z,52.59
2023-05-05T11:06:49.481Z,53.78
2023-05-05T11:07:49.573Z,53.59
2023-05-05T11:08:49.492Z,52.79
2023-05-05T11:09:49.463Z,53.41
2023-05-05T11:10:49.463Z,53.41
2023-05-05T11:12:10.421Z,53.84
2023-05-05T11:12:49.429Z,54.27
2023-05-05T11:13:50.083Z,55.76
2023-05-05T11:14:49.475Z,54.57
2023-05-05T11:15:49.426Z,55.96
2023-05-05T11:16:49.392Z,55.63
2023-05-05T11:17:49.563Z,55.04
2023-05-05T11:18:49.438Z,54.14
2023-05-05T11:19:49.372Z,53.84
2023-05-05T11:20:49.380Z,54.14
2023-05-05T11:21:49.424Z,56.96
2023-05-05T11:22:49.299Z,54.96
2023-05-05T11:23:49.480Z,55.66
2023-05-05T11:24:49.347Z,55.88
2023-05-05T11:25:49.330Z,55.79
2023-05-05T11:26:49.248Z,54.69
2023-05-05T11:27:49.310Z,55.99
2023-05-05T11:28:49.263Z,56.59
2023-05-05T11:29:51.924Z,56.38
2023-05-05T11:30:49.233Z,54.41
2023-05-05T11:31:49.215Z,55.71
2023-05-05T11:32:49.259Z,56.91
2023-05-05T11:33:49.422Z,56.21
2023-05-05T11:34:49.177Z,56.51
2023-05-05T11:35:49.188Z,54.91
2023-05-05T11:36:49.150Z,56.14
2023-05-05T11:37:49.180Z,56.24
2023-05-05T11:38:49.156Z,56.96
2023-05-05T11:39:49.110Z,57.26
2023-05-05T11:40:49.157Z,56.37
2023-05-05T11:41:49.112Z,56.37
2023-05-05T11:42:49.106Z,56.27
2023-05-05T11:43:49.080Z,56.37
2023-05-05T11:44:49.121Z,57.07
2023-05-05T11:45:49.110Z,56.14
2023-05-05T11:46:49.062Z,56.34
2023-05-05T11:47:49.179Z,56.24
2023-05-05T11:48:49.018Z,57.14
2023-05-05T11:49:49.021Z,55.32
2023-05-05T11:50:49.051Z,55.71
2023-05-05T11:51:49.017Z,55.91
2023-05-05T11:52:48.996Z,55.62
2023-05-05T11:53:48.982Z,54.99
2023-05-05T11:54:49.020Z,55.09
2023-05-05T11:55:49.027Z,54.09
2023-05-05T11:56:48.968Z,54.46
2023-05-05T11:57:48.984Z,54.16
2023-05-05T11:58:48.962Z,53.86
2023-05-05T11:59:49.653Z,53.47
2023-05-05T12:00:48.890Z,54.46
2023-05-05T12:01:48.902Z,54.24
2023-05-05T12:02:49.002Z,54.57
2023-05-05T12:03:49.099Z,54.76
2023-05-05T12:04:49.066Z,55.26
2023-05-05T12:05:48.848Z,53.96
2023-05-05T12:06:48.847Z,53.77
2023-05-05T12:07:48.949Z,54.49
2023-05-05T12:08:48.930Z,54.99
2023-05-05T12:09:49.219Z,54.49
2023-05-05T12:10:48.809Z,55.09
2023-05-05T12:11:48.793Z,54.89
2023-05-05T12:12:48.779Z,55.21
2023-05-05T12:13:48.840Z,55.51
2023-05-05T12:14:48.732Z,55.44
2023-05-05T12:15:48.773Z,56.34
2023-05-05T12:16:48.925Z,56.34
2023-05-05T12:17:48.826Z,55.44
2023-05-05T12:18:48.740Z,55.66
2023-05-05T12:19:48.744Z,55.99
2023-05-05T12:20:48.715Z,56.99
2023-05-05T12:21:49.093Z,57.50
2023-05-05T12:22:48.638Z,57.69
2023-05-05T12:23:48.680Z,57.50
2023-05-05T12:24:48.723Z,56.42
2023-05-05T12:25:48.649Z,56.92
2023-05-05T12:26:48.640Z,57.62
2023-05-05T12:27:48.617Z,58.65
2023-05-05T12:28:48.689Z,58.35
2023-05-05T12:29:48.666Z,58.85
2023-05-05T12:30:48.659Z,57.95
2023-05-05T12:31:48.655Z,58.55
2023-05-05T12:32:48.594Z,60.18
2023-05-05T12:33:48.591Z,61.18
2023-05-05T12:34:48.561Z,61.68
2023-05-05T12:35:48.551Z,62.78
2023-05-05T12:36:48.570Z,64.18
2023-05-05T12:37:48.526Z,64.98
2023-05-05T12:38:48.551Z,65.78
2023-05-05T12:39:48.524Z,66.52
2023-05-05T12:40:48.724Z,66.22
2023-05-05T12:41:48.619Z,66.82
2023-05-05T12:42:48.510Z,67.85
2023-05-05T12:43:48.542Z,65.45
2023-05-05T12:44:48.500Z,68.35
2023-05-05T12:45:48.753Z,69.76
2023-05-05T12:46:48.452Z,69.59
2023-05-05T12:47:48.468Z,69.19
2023-05-05T12:48:48.644Z,69.09
2023-05-05T12:49:48.467Z,68.29
2023-05-05T12:50:48.621Z,69.89
2023-05-05T12:51:48.403Z,69.39
2023-05-05T12:52:48.351Z,69.49